Tubul — A8VP8 — position and weather

sailwx.info

Track history (hours):
 
Tides and Currents Weather Stations Pressure Air Temp Water Temp Dewpoint Dewpoint Depression Visibility Wind Speed Wind Dir Waves Ship Positions

Tubul

Last reported at 2014-Sep-03 01:17 UTC. Time now 2014-Sep-21 16:12 UTC.
Position S 24°16' W 046°20'.
Warning: this ship's position is 18 days out of date.

Length 300 m; draft 12.2 m.

Type: Ship. MMSI: 636014647.

Date/timePositionNaut miles runAvg speedWind from/ knotsBaromVisibWave heightAir tempDewpointWater temp
2014-Sep-03 01:17S 24°16' W 046°20'40716.9
2014-Sep-02 01:11S 24°37' W 038°54'  
2014-Aug-25 09:09S 34°28' E 017°56'1817.4
2014-Aug-25 08:08S 34°40' E 018°13'1117.0
2014-Aug-25 07:30S 34°43' E 018°25'1717.3
2014-Aug-25 06:32S 34°47' E 018°45'1717.5
2014-Aug-25 05:33S 34°50' E 019°05'1717.3
2014-Aug-25 04:34S 34°53' E 019°26'3517.4
2014-Aug-25 02:32S 34°58' E 020°09'9317.4
2014-Aug-24 21:11S 34°47' E 022°01'13417.5
2014-Aug-24 13:31S 34°20' E 024°41'1717.2
2014-Aug-24 12:32S 34°17' E 025°01'8215.8
2014-Aug-24 07:20S 33°53' E 026°36'1213.5
2014-Aug-24 06:27S 33°48' E 026°49'1213.4
2014-Aug-24 05:32S 33°42' E 027°02'5613.4
2014-Aug-24 01:22S 33°13' E 027°59'  
Track history (hours):
 
Tides and Currents Weather Stations Pressure Air Temp Water Temp Dewpoint Dewpoint Depression Visibility Wind Speed Wind Dir Waves Ship Positions

Tubul

Last reported at 2014-Sep-03 01:17 UTC. Time now 2014-Sep-21 16:12 UTC.
Position S 24°16' W 046°20'.
Warning: this ship's position is 18 days out of date.

Length 300 m; draft 12.2 m.

Type: Ship. MMSI: 636014647.

Date/timePositionNaut miles runAvg speedWind from/ knotsBaromVisibWave heightAir tempDewpointWater temp
2014-Sep-03 01:17S 24°16' W 046°20'40716.9
2014-Sep-02 01:11S 24°37' W 038°54'  
2014-Aug-25 09:09S 34°28' E 017°56'1817.4
2014-Aug-25 08:08S 34°40' E 018°13'1117.0
2014-Aug-25 07:30S 34°43' E 018°25'1717.3
2014-Aug-25 06:32S 34°47' E 018°45'1717.5
2014-Aug-25 05:33S 34°50' E 019°05'1717.3
2014-Aug-25 04:34S 34°53' E 019°26'3517.4
2014-Aug-25 02:32S 34°58' E 020°09'9317.4
2014-Aug-24 21:11S 34°47' E 022°01'13417.5
2014-Aug-24 13:31S 34°20' E 024°41'1717.2
2014-Aug-24 12:32S 34°17' E 025°01'8215.8
2014-Aug-24 07:20S 33°53' E 026°36'1213.5
2014-Aug-24 06:27S 33°48' E 026°49'1213.4
2014-Aug-24 05:32S 33°42' E 027°02'5613.4
2014-Aug-24 01:22S 33°13' E 027°59'  

Dump ship's entire track history